sensor_id;sensor_type;location;lat;lon;timestamp;P1;durP1;ratioP1;P2;durP2;ratioP2
77705;SDS011;66874;45.274;5.880;2024-02-21T00:00:53;9.02;;;4.07;;
77705;SDS011;66874;45.274;5.880;2024-02-21T00:03:19;6.07;;;3.92;;
77705;SDS011;66874;45.274;5.880;2024-02-21T00:05:45;6.63;;;3.83;;
77705;SDS011;66874;45.274;5.880;2024-02-21T00:08:10;13.00;;;4.32;;
77705;SDS011;66874;45.274;5.880;2024-02-21T00:10:35;7.45;;;3.70;;
77705;SDS011;66874;45.274;5.880;2024-02-21T00:13:01;6.93;;;4.40;;
77705;SDS011;66874;45.274;5.880;2024-02-21T00:15:26;6.72;;;3.05;;
77705;SDS011;66874;45.274;5.880;2024-02-21T00:17:52;12.90;;;4.68;;
77705;SDS011;66874;45.274;5.880;2024-02-21T00:20:17;19.13;;;7.47;;
77705;SDS011;66874;45.274;5.880;2024-02-21T00:22:46;13.45;;;5.13;;
77705;SDS011;66874;45.274;5.880;2024-02-21T00:25:11;11.38;;;4.32;;
77705;SDS011;66874;45.274;5.880;2024-02-21T00:27:37;11.35;;;6.32;;
77705;SDS011;66874;45.274;5.880;2024-02-21T00:30:04;9.98;;;4.75;;
77705;SDS011;66874;45.274;5.880;2024-02-21T00:32:30;10.57;;;4.97;;
77705;SDS011;66874;45.274;5.880;2024-02-21T00:34:55;8.75;;;4.50;;
77705;SDS011;66874;45.274;5.880;2024-02-21T00:37:20;13.98;;;5.20;;
77705;SDS011;66874;45.274;5.880;2024-02-21T00:39:46;12.70;;;5.07;;
77705;SDS011;66874;45.274;5.880;2024-02-21T00:42:11;10.07;;;4.50;;
77705;SDS011;66874;45.274;5.880;2024-02-21T00:44:36;8.70;;;5.03;;
77705;SDS011;66874;45.274;5.880;2024-02-21T00:47:02;10.18;;;5.22;;
77705;SDS011;66874;45.274;5.880;2024-02-21T00:49:27;10.23;;;5.03;;
77705;SDS011;66874;45.274;5.880;2024-02-21T00:51:53;10.63;;;5.47;;
77705;SDS011;66874;45.274;5.880;2024-02-21T00:54:18;11.35;;;5.57;;
77705;SDS011;66874;45.274;5.880;2024-02-21T00:56:44;10.38;;;5.93;;
77705;SDS011;66874;45.274;5.880;2024-02-21T00:59:09;11.57;;;5.70;;
77705;SDS011;66874;45.274;5.880;2024-02-21T01:01:34;12.55;;;5.40;;
77705;SDS011;66874;45.274;5.880;2024-02-21T01:04:00;9.65;;;5.85;;
77705;SDS011;66874;45.274;5.880;2024-02-21T01:06:25;8.93;;;5.10;;
77705;SDS011;66874;45.274;5.880;2024-02-21T01:08:51;9.55;;;4.65;;
77705;SDS011;66874;45.274;5.880;2024-02-21T01:11:16;7.88;;;4.63;;
77705;SDS011;66874;45.274;5.880;2024-02-21T01:13:42;9.05;;;4.20;;
77705;SDS011;66874;45.274;5.880;2024-02-21T01:16:07;8.27;;;3.75;;
77705;SDS011;66874;45.274;5.880;2024-02-21T01:18:33;16.65;;;4.88;;
77705;SDS011;66874;45.274;5.880;2024-02-21T01:20:59;10.30;;;4.57;;
77705;SDS011;66874;45.274;5.880;2024-02-21T01:23:24;12.15;;;4.43;;
77705;SDS011;66874;45.274;5.880;2024-02-21T01:25:50;9.80;;;4.32;;
77705;SDS011;66874;45.274;5.880;2024-02-21T01:28:16;7.18;;;3.95;;
77705;SDS011;66874;45.274;5.880;2024-02-21T01:30:41;9.73;;;4.13;;
77705;SDS011;66874;45.274;5.880;2024-02-21T01:33:07;7.45;;;3.88;;
77705;SDS011;66874;45.274;5.880;2024-02-21T01:35:32;6.55;;;3.95;;
77705;SDS011;66874;45.274;5.880;2024-02-21T01:37:57;6.80;;;3.05;;
77705;SDS011;66874;45.274;5.880;2024-02-21T01:40:23;6.90;;;3.75;;
77705;SDS011;66874;45.274;5.880;2024-02-21T01:42:48;7.43;;;3.30;;
77705;SDS011;66874;45.274;5.880;2024-02-21T01:45:13;7.63;;;3.42;;
77705;SDS011;66874;45.274;5.880;2024-02-21T01:47:39;13.30;;;3.78;;
77705;SDS011;66874;45.274;5.880;2024-02-21T01:50:05;6.03;;;4.05;;
77705;SDS011;66874;45.274;5.880;2024-02-21T01:52:31;7.03;;;3.35;;
77705;SDS011;66874;45.274;5.880;2024-02-21T01:57:25;4.90;;;2.67;;
77705;SDS011;66874;45.274;5.880;2024-02-21T01:59:50;9.60;;;3.50;;
77705;SDS011;66874;45.274;5.880;2024-02-21T02:02:17;5.30;;;3.38;;
77705;SDS011;66874;45.274;5.880;2024-02-21T02:04:43;6.20;;;3.20;;
77705;SDS011;66874;45.274;5.880;2024-02-21T02:07:10;8.85;;;3.88;;
77705;SDS011;66874;45.274;5.880;2024-02-21T02:09:35;6.18;;;3.70;;
77705;SDS011;66874;45.274;5.880;2024-02-21T02:12:01;10.45;;;3.85;;
77705;SDS011;66874;45.274;5.880;2024-02-21T02:14:27;8.02;;;3.45;;
77705;SDS011;66874;45.274;5.880;2024-02-21T02:16:52;5.35;;;3.08;;
77705;SDS011;66874;45.274;5.880;2024-02-21T02:19:18;9.02;;;3.80;;
77705;SDS011;66874;45.274;5.880;2024-02-21T02:21:46;5.65;;;3.58;;
77705;SDS011;66874;45.274;5.880;2024-02-21T02:24:21;9.60;;;4.47;;
77705;SDS011;66874;45.274;5.880;2024-02-21T02:29:14;6.65;;;3.22;;
77705;SDS011;66874;45.274;5.880;2024-02-21T02:31:39;6.47;;;3.30;;
77705;SDS011;66874;45.274;5.880;2024-02-21T02:34:05;7.63;;;3.40;;
77705;SDS011;66874;45.274;5.880;2024-02-21T02:36:33;7.80;;;3.53;;
77705;SDS011;66874;45.274;5.880;2024-02-21T02:38:59;6.95;;;3.30;;
77705;SDS011;66874;45.274;5.880;2024-02-21T02:41:24;5.50;;;2.85;;
77705;SDS011;66874;45.274;5.880;2024-02-21T02:43:50;4.95;;;2.60;;
77705;SDS011;66874;45.274;5.880;2024-02-21T02:46:15;6.47;;;2.90;;
77705;SDS011;66874;45.274;5.880;2024-02-21T02:48:40;4.85;;;2.90;;
77705;SDS011;66874;45.274;5.880;2024-02-21T02:51:06;7.30;;;3.03;;
77705;SDS011;66874;45.274;5.880;2024-02-21T02:53:31;8.52;;;3.75;;
77705;SDS011;66874;45.274;5.880;2024-02-21T02:55:57;8.75;;;3.40;;
77705;SDS011;66874;45.274;5.880;2024-02-21T02:58:22;6.70;;;3.53;;
77705;SDS011;66874;45.274;5.880;2024-02-21T03:00:48;6.47;;;3.40;;
77705;SDS011;66874;45.274;5.880;2024-02-21T03:03:13;9.40;;;3.45;;
77705;SDS011;66874;45.274;5.880;2024-02-21T03:05:38;9.15;;;4.40;;
77705;SDS011;66874;45.274;5.880;2024-02-21T03:08:04;9.43;;;4.50;;
77705;SDS011;66874;45.274;5.880;2024-02-21T03:10:32;10.05;;;4.72;;
77705;SDS011;66874;45.274;5.880;2024-02-21T03:12:58;6.97;;;3.78;;
77705;SDS011;66874;45.274;5.880;2024-02-21T03:15:23;8.75;;;4.30;;
77705;SDS011;66874;45.274;5.880;2024-02-21T03:17:49;8.75;;;4.30;;
77705;SDS011;66874;45.274;5.880;2024-02-21T03:20:15;5.78;;;3.67;;
77705;SDS011;66874;45.274;5.880;2024-02-21T03:22:40;9.30;;;4.68;;
77705;SDS011;66874;45.274;5.880;2024-02-21T03:25:06;7.25;;;3.83;;
77705;SDS011;66874;45.274;5.880;2024-02-21T03:27:33;8.38;;;3.85;;
77705;SDS011;66874;45.274;5.880;2024-02-21T03:29:59;6.75;;;3.00;;
77705;SDS011;66874;45.274;5.880;2024-02-21T03:32:24;3.92;;;2.63;;
77705;SDS011;66874;45.274;5.880;2024-02-21T03:34:49;6.32;;;3.22;;
77705;SDS011;66874;45.274;5.880;2024-02-21T03:37:15;6.20;;;3.17;;
77705;SDS011;66874;45.274;5.880;2024-02-21T03:39:40;5.95;;;3.08;;
77705;SDS011;66874;45.274;5.880;2024-02-21T03:42:06;9.48;;;3.08;;
77705;SDS011;66874;45.274;5.880;2024-02-21T03:44:31;4.28;;;2.75;;
77705;SDS011;66874;45.274;5.880;2024-02-21T03:46:57;4.85;;;2.65;;
77705;SDS011;66874;45.274;5.880;2024-02-21T03:49:26;5.13;;;2.90;;
77705;SDS011;66874;45.274;5.880;2024-02-21T03:51:51;13.15;;;3.55;;
77705;SDS011;66874;45.274;5.880;2024-02-21T03:54:17;7.07;;;3.17;;
77705;SDS011;66874;45.274;5.880;2024-02-21T03:56:43;6.68;;;2.78;;
77705;SDS011;66874;45.274;5.880;2024-02-21T03:59:08;12.32;;;2.75;;
77705;SDS011;66874;45.274;5.880;2024-02-21T04:01:34;7.95;;;3.65;;
77705;SDS011;66874;45.274;5.880;2024-02-21T04:04:00;7.78;;;3.30;;
77705;SDS011;66874;45.274;5.880;2024-02-21T04:06:26;5.90;;;3.17;;
77705;SDS011;66874;45.274;5.880;2024-02-21T04:08:51;7.63;;;3.90;;
77705;SDS011;66874;45.274;5.880;2024-02-21T04:11:16;11.13;;;3.67;;
77705;SDS011;66874;45.274;5.880;2024-02-21T04:13:43;7.28;;;4.22;;
77705;SDS011;66874;45.274;5.880;2024-02-21T04:16:09;8.02;;;3.05;;
77705;SDS011;66874;45.274;5.880;2024-02-21T04:18:34;8.63;;;3.33;;
77705;SDS011;66874;45.274;5.880;2024-02-21T04:21:00;7.47;;;3.40;;
77705;SDS011;66874;45.274;5.880;2024-02-21T04:23:25;11.98;;;3.30;;
77705;SDS011;66874;45.274;5.880;2024-02-21T04:25:50;8.32;;;3.83;;
77705;SDS011;66874;45.274;5.880;2024-02-21T04:28:16;8.30;;;4.03;;
77705;SDS011;66874;45.274;5.880;2024-02-21T04:30:41;7.50;;;3.72;;
77705;SDS011;66874;45.274;5.880;2024-02-21T04:33:06;7.32;;;4.47;;
77705;SDS011;66874;45.274;5.880;2024-02-21T04:35:32;5.82;;;3.80;;
77705;SDS011;66874;45.274;5.880;2024-02-21T04:37:57;7.63;;;3.85;;
77705;SDS011;66874;45.274;5.880;2024-02-21T04:40:22;11.68;;;4.95;;
77705;SDS011;66874;45.274;5.880;2024-02-21T04:42:48;9.93;;;4.18;;
77705;SDS011;66874;45.274;5.880;2024-02-21T04:45:13;8.60;;;4.50;;
77705;SDS011;66874;45.274;5.880;2024-02-21T04:47:39;8.20;;;3.67;;
77705;SDS011;66874;45.274;5.880;2024-02-21T04:50:04;8.32;;;4.03;;
77705;SDS011;66874;45.274;5.880;2024-02-21T04:52:31;6.32;;;3.90;;
77705;SDS011;66874;45.274;5.880;2024-02-21T04:54:56;8.30;;;4.20;;
77705;SDS011;66874;45.274;5.880;2024-02-21T04:57:21;8.13;;;4.15;;
77705;SDS011;66874;45.274;5.880;2024-02-21T04:59:47;7.55;;;3.92;;
77705;SDS011;66874;45.274;5.880;2024-02-21T05:02:13;7.50;;;3.85;;
77705;SDS011;66874;45.274;5.880;2024-02-21T05:04:38;7.25;;;3.55;;
77705;SDS011;66874;45.274;5.880;2024-02-21T05:07:05;7.85;;;3.92;;
77705;SDS011;66874;45.274;5.880;2024-02-21T05:09:30;9.93;;;4.57;;
77705;SDS011;66874;45.274;5.880;2024-02-21T05:11:56;7.78;;;4.15;;
77705;SDS011;66874;45.274;5.880;2024-02-21T05:14:23;7.10;;;3.70;;
77705;SDS011;66874;45.274;5.880;2024-02-21T05:16:48;6.97;;;4.28;;
77705;SDS011;66874;45.274;5.880;2024-02-21T05:19:14;7.10;;;3.95;;
77705;SDS011;66874;45.274;5.880;2024-02-21T05:21:39;6.32;;;3.58;;
77705;SDS011;66874;45.274;5.880;2024-02-21T05:24:04;8.32;;;3.47;;
77705;SDS011;66874;45.274;5.880;2024-02-21T05:26:30;13.35;;;4.22;;
77705;SDS011;66874;45.274;5.880;2024-02-21T05:28:55;6.85;;;4.13;;
77705;SDS011;66874;45.274;5.880;2024-02-21T05:31:21;12.85;;;4.28;;
77705;SDS011;66874;45.274;5.880;2024-02-21T05:33:46;7.47;;;4.25;;
77705;SDS011;66874;45.274;5.880;2024-02-21T05:36:12;7.70;;;3.80;;
77705;SDS011;66874;45.274;5.880;2024-02-21T05:38:38;13.50;;;4.38;;
77705;SDS011;66874;45.274;5.880;2024-02-21T05:41:03;6.28;;;4.00;;
77705;SDS011;66874;45.274;5.880;2024-02-21T05:43:29;5.88;;;3.80;;
77705;SDS011;66874;45.274;5.880;2024-02-21T05:45:55;8.85;;;3.80;;
77705;SDS011;66874;45.274;5.880;2024-02-21T05:48:21;8.48;;;3.85;;
77705;SDS011;66874;45.274;5.880;2024-02-21T05:50:47;7.33;;;3.50;;
77705;SDS011;66874;45.274;5.880;2024-02-21T05:53:13;7.45;;;3.33;;
77705;SDS011;66874;45.274;5.880;2024-02-21T05:55:38;7.18;;;3.95;;
77705;SDS011;66874;45.274;5.880;2024-02-21T05:58:04;5.53;;;3.83;;
77705;SDS011;66874;45.274;5.880;2024-02-21T06:00:31;5.83;;;3.73;;
77705;SDS011;66874;45.274;5.880;2024-02-21T06:02:57;9.57;;;4.20;;
77705;SDS011;66874;45.274;5.880;2024-02-21T06:05:22;12.45;;;4.70;;
77705;SDS011;66874;45.274;5.880;2024-02-21T06:07:47;8.77;;;3.97;;
77705;SDS011;66874;45.274;5.880;2024-02-21T06:10:13;7.50;;;4.00;;
77705;SDS011;66874;45.274;5.880;2024-02-21T06:12:38;11.15;;;4.07;;
77705;SDS011;66874;45.274;5.880;2024-02-21T06:15:03;7.90;;;4.10;;
77705;SDS011;66874;45.274;5.880;2024-02-21T06:17:29;6.10;;;3.55;;
77705;SDS011;66874;45.274;5.880;2024-02-21T06:19:54;6.82;;;4.05;;
77705;SDS011;66874;45.274;5.880;2024-02-21T06:22:20;8.18;;;4.68;;
77705;SDS011;66874;45.274;5.880;2024-02-21T06:24:45;9.23;;;4.57;;
77705;SDS011;66874;45.274;5.880;2024-02-21T06:27:11;10.70;;;4.55;;
77705;SDS011;66874;45.274;5.880;2024-02-21T06:29:36;10.52;;;4.60;;
77705;SDS011;66874;45.274;5.880;2024-02-21T06:32:03;8.27;;;4.50;;
77705;SDS011;66874;45.274;5.880;2024-02-21T06:34:28;8.13;;;4.68;;
77705;SDS011;66874;45.274;5.880;2024-02-21T06:36:54;14.02;;;4.50;;
77705;SDS011;66874;45.274;5.880;2024-02-21T06:39:19;14.02;;;4.88;;
77705;SDS011;66874;45.274;5.880;2024-02-21T06:41:44;13.27;;;5.28;;
77705;SDS011;66874;45.274;5.880;2024-02-21T06:44:10;11.32;;;5.53;;
77705;SDS011;66874;45.274;5.880;2024-02-21T06:46:35;12.30;;;5.60;;
77705;SDS011;66874;45.274;5.880;2024-02-21T06:49:01;12.85;;;5.95;;
77705;SDS011;66874;45.274;5.880;2024-02-21T06:51:29;12.65;;;6.22;;
77705;SDS011;66874;45.274;5.880;2024-02-21T06:53:54;10.57;;;5.30;;
77705;SDS011;66874;45.274;5.880;2024-02-21T06:56:20;7.43;;;4.40;;
77705;SDS011;66874;45.274;5.880;2024-02-21T06:58:51;8.38;;;4.50;;
77705;SDS011;66874;45.274;5.880;2024-02-21T07:01:17;12.63;;;5.30;;
77705;SDS011;66874;45.274;5.880;2024-02-21T07:03:42;12.68;;;5.10;;
77705;SDS011;66874;45.274;5.880;2024-02-21T07:06:08;7.72;;;4.00;;
77705;SDS011;66874;45.274;5.880;2024-02-21T07:08:33;12.65;;;4.60;;
77705;SDS011;66874;45.274;5.880;2024-02-21T07:10:58;8.85;;;4.55;;
77705;SDS011;66874;45.274;5.880;2024-02-21T07:13:24;10.55;;;4.25;;
77705;SDS011;66874;45.274;5.880;2024-02-21T07:15:49;14.90;;;4.55;;
77705;SDS011;66874;45.274;5.880;2024-02-21T07:18:15;10.90;;;4.68;;
77705;SDS011;66874;45.274;5.880;2024-02-21T07:20:40;10.60;;;5.22;;
77705;SDS011;66874;45.274;5.880;2024-02-21T07:23:06;8.35;;;4.20;;
77705;SDS011;66874;45.274;5.880;2024-02-21T07:25:32;8.82;;;4.60;;
77705;SDS011;66874;45.274;5.880;2024-02-21T07:27:57;6.82;;;3.85;;
77705;SDS011;66874;45.274;5.880;2024-02-21T07:30:23;13.02;;;5.57;;
77705;SDS011;66874;45.274;5.880;2024-02-21T07:32:49;8.63;;;5.38;;
77705;SDS011;66874;45.274;5.880;2024-02-21T07:35:15;15.13;;;5.90;;
77705;SDS011;66874;45.274;5.880;2024-02-21T07:37:41;13.80;;;5.85;;
77705;SDS011;66874;45.274;5.880;2024-02-21T07:40:06;9.68;;;5.07;;
77705;SDS011;66874;45.274;5.880;2024-02-21T07:42:37;10.13;;;4.63;;
77705;SDS011;66874;45.274;5.880;2024-02-21T07:45:02;8.20;;;4.35;;
77705;SDS011;66874;45.274;5.880;2024-02-21T07:47:28;7.30;;;4.47;;
77705;SDS011;66874;45.274;5.880;2024-02-21T07:49:54;11.85;;;4.22;;
77705;SDS011;66874;45.274;5.880;2024-02-21T07:52:19;6.90;;;3.90;;
77705;SDS011;66874;45.274;5.880;2024-02-21T07:54:44;7.03;;;4.00;;
77705;SDS011;66874;45.274;5.880;2024-02-21T07:57:10;9.65;;;4.30;;
77705;SDS011;66874;45.274;5.880;2024-02-21T07:59:35;12.93;;;4.97;;
77705;SDS011;66874;45.274;5.880;2024-02-21T08:02:00;11.50;;;5.60;;
77705;SDS011;66874;45.274;5.880;2024-02-21T08:04:27;11.65;;;5.93;;
77705;SDS011;66874;45.274;5.880;2024-02-21T08:06:53;9.90;;;5.63;;
77705;SDS011;66874;45.274;5.880;2024-02-21T08:09:21;11.65;;;5.57;;
77705;SDS011;66874;45.274;5.880;2024-02-21T08:11:47;10.40;;;4.60;;
77705;SDS011;66874;45.274;5.880;2024-02-21T08:14:14;9.95;;;4.78;;
77705;SDS011;66874;45.274;5.880;2024-02-21T08:16:41;7.68;;;4.38;;
77705;SDS011;66874;45.274;5.880;2024-02-21T08:19:07;7.28;;;3.60;;
77705;SDS011;66874;45.274;5.880;2024-02-21T08:21:32;9.45;;;3.78;;
77705;SDS011;66874;45.274;5.880;2024-02-21T08:23:57;9.57;;;4.95;;
77705;SDS011;66874;45.274;5.880;2024-02-21T08:26:23;7.85;;;4.22;;
77705;SDS011;66874;45.274;5.880;2024-02-21T08:28:48;7.43;;;4.65;;
77705;SDS011;66874;45.274;5.880;2024-02-21T08:31:20;8.75;;;4.75;;
77705;SDS011;66874;45.274;5.880;2024-02-21T08:33:45;10.30;;;4.40;;
77705;SDS011;66874;45.274;5.880;2024-02-21T08:36:17;13.90;;;4.10;;
77705;SDS011;66874;45.274;5.880;2024-02-21T08:38:44;9.88;;;5.28;;
77705;SDS011;66874;45.274;5.880;2024-02-21T08:41:10;9.00;;;4.03;;
77705;SDS011;66874;45.274;5.880;2024-02-21T08:43:35;10.20;;;5.05;;
77705;SDS011;66874;45.274;5.880;2024-02-21T08:46:01;9.13;;;5.07;;
77705;SDS011;66874;45.274;5.880;2024-02-21T08:48:26;9.77;;;4.40;;
77705;SDS011;66874;45.274;5.880;2024-02-21T08:50:51;11.23;;;4.65;;
77705;SDS011;66874;45.274;5.880;2024-02-21T08:53:17;9.35;;;4.30;;
77705;SDS011;66874;45.274;5.880;2024-02-21T08:55:42;9.30;;;4.78;;
77705;SDS011;66874;45.274;5.880;2024-02-21T08:58:09;11.00;;;4.27;;
77705;SDS011;66874;45.274;5.880;2024-02-21T09:00:34;8.20;;;4.15;;
77705;SDS011;66874;45.274;5.880;2024-02-21T09:03:00;14.80;;;3.88;;
77705;SDS011;66874;45.274;5.880;2024-02-21T09:05:25;14.82;;;4.78;;
77705;SDS011;66874;45.274;5.880;2024-02-21T09:07:51;12.73;;;4.90;;
77705;SDS011;66874;45.274;5.880;2024-02-21T09:10:16;12.52;;;5.05;;
77705;SDS011;66874;45.274;5.880;2024-02-21T09:12:42;12.07;;;5.70;;
77705;SDS011;66874;45.274;5.880;2024-02-21T09:15:08;12.40;;;4.72;;
77705;SDS011;66874;45.274;5.880;2024-02-21T09:17:33;9.48;;;4.95;;
77705;SDS011;66874;45.274;5.880;2024-02-21T09:19:59;10.05;;;4.63;;
77705;SDS011;66874;45.274;5.880;2024-02-21T09:22:28;12.10;;;4.30;;
77705;SDS011;66874;45.274;5.880;2024-02-21T09:24:53;6.05;;;3.63;;
77705;SDS011;66874;45.274;5.880;2024-02-21T09:27:19;6.68;;;3.85;;
77705;SDS011;66874;45.274;5.880;2024-02-21T09:29:44;12.10;;;4.30;;
77705;SDS011;66874;45.274;5.880;2024-02-21T09:32:09;9.27;;;4.30;;
77705;SDS011;66874;45.274;5.880;2024-02-21T09:34:35;10.25;;;4.38;;
77705;SDS011;66874;45.274;5.880;2024-02-21T09:37:00;15.52;;;4.32;;
77705;SDS011;66874;45.274;5.880;2024-02-21T09:39:25;10.05;;;4.60;;
77705;SDS011;66874;45.274;5.880;2024-02-21T09:41:53;8.05;;;3.88;;
77705;SDS011;66874;45.274;5.880;2024-02-21T09:44:21;14.30;;;8.15;;
77705;SDS011;66874;45.274;5.880;2024-02-21T09:49:35;6.97;;;3.83;;
77705;SDS011;66874;45.274;5.880;2024-02-21T09:52:06;7.38;;;3.45;;
77705;SDS011;66874;45.274;5.880;2024-02-21T09:54:35;13.98;;;3.45;;
77705;SDS011;66874;45.274;5.880;2024-02-21T09:57:01;8.55;;;4.00;;
77705;SDS011;66874;45.274;5.880;2024-02-21T09:59:28;8.00;;;3.25;;
77705;SDS011;66874;45.274;5.880;2024-02-21T10:01:55;9.10;;;2.97;;
77705;SDS011;66874;45.274;5.880;2024-02-21T10:04:21;7.32;;;3.38;;
77705;SDS011;66874;45.274;5.880;2024-02-21T10:06:46;7.30;;;3.30;;
77705;SDS011;66874;45.274;5.880;2024-02-21T10:09:27;4.53;;;2.45;;
77705;SDS011;66874;45.274;5.880;2024-02-21T10:11:54;4.70;;;2.55;;
77705;SDS011;66874;45.274;5.880;2024-02-21T10:14:20;8.52;;;1.95;;
77705;SDS011;66874;45.274;5.880;2024-02-21T10:16:56;4.35;;;1.85;;
77705;SDS011;66874;45.274;5.880;2024-02-21T10:19:25;3.05;;;2.00;;
77705;SDS011;66874;45.274;5.880;2024-02-21T10:22:00;10.73;;;4.72;;
77705;SDS011;66874;45.274;5.880;2024-02-21T10:24:32;9.57;;;2.53;;
77705;SDS011;66874;45.274;5.880;2024-02-21T10:27:01;6.13;;;3.00;;
77705;SDS011;66874;45.274;5.880;2024-02-21T10:29:31;5.38;;;2.35;;
77705;SDS011;66874;45.274;5.880;2024-02-21T10:32:10;4.72;;;2.10;;
77705;SDS011;66874;45.274;5.880;2024-02-21T10:34:37;5.53;;;2.40;;
77705;SDS011;66874;45.274;5.880;2024-02-21T10:37:10;8.48;;;2.78;;
77705;SDS011;66874;45.274;5.880;2024-02-21T10:39:41;5.75;;;2.47;;
77705;SDS011;66874;45.274;5.880;2024-02-21T10:42:10;5.45;;;1.70;;
77705;SDS011;66874;45.274;5.880;2024-02-21T10:44:37;3.22;;;2.00;;
77705;SDS011;66874;45.274;5.880;2024-02-21T10:49:33;3.03;;;1.58;;
77705;SDS011;66874;45.274;5.880;2024-02-21T10:55:21;4.43;;;2.17;;
77705;SDS011;66874;45.274;5.880;2024-02-21T10:57:54;5.47;;;1.98;;
77705;SDS011;66874;45.274;5.880;2024-02-21T11:00:22;4.03;;;2.10;;
77705;SDS011;66874;45.274;5.880;2024-02-21T11:02:52;5.10;;;2.22;;
77705;SDS011;66874;45.274;5.880;2024-02-21T11:05:17;4.13;;;2.22;;
77705;SDS011;66874;45.274;5.880;2024-02-21T11:07:43;5.55;;;2.30;;
77705;SDS011;66874;45.274;5.880;2024-02-21T11:10:24;3.17;;;1.85;;
77705;SDS011;66874;45.274;5.880;2024-02-21T11:13:05;5.00;;;2.00;;
77705;SDS011;66874;45.274;5.880;2024-02-21T11:15:32;3.42;;;1.90;;
77705;SDS011;66874;45.274;5.880;2024-02-21T11:17:57;3.15;;;1.98;;
77705;SDS011;66874;45.274;5.880;2024-02-21T11:20:31;6.20;;;2.00;;
77705;SDS011;66874;45.274;5.880;2024-02-21T11:22:58;3.92;;;2.30;;
77705;SDS011;66874;45.274;5.880;2024-02-21T11:25:23;4.68;;;2.22;;
77705;SDS011;66874;45.274;5.880;2024-02-21T11:27:49;4.88;;;2.10;;
77705;SDS011;66874;45.274;5.880;2024-02-21T11:30:14;4.75;;;2.60;;
77705;SDS011;66874;45.274;5.880;2024-02-21T11:32:41;8.55;;;2.60;;
77705;SDS011;66874;45.274;5.880;2024-02-21T11:35:06;3.28;;;1.98;;
77705;SDS011;66874;45.274;5.880;2024-02-21T11:37:32;4.45;;;2.08;;
77705;SDS011;66874;45.274;5.880;2024-02-21T11:39:59;2.58;;;1.85;;
77705;SDS011;66874;45.274;5.880;2024-02-21T11:42:25;2.70;;;1.90;;
77705;SDS011;66874;45.274;5.880;2024-02-21T11:44:52;5.00;;;1.80;;
77705;SDS011;66874;45.274;5.880;2024-02-21T11:47:18;4.18;;;1.60;;
77705;SDS011;66874;45.274;5.880;2024-02-21T11:49:47;5.93;;;2.45;;
77705;SDS011;66874;45.274;5.880;2024-02-21T11:52:15;4.70;;;2.17;;
77705;SDS011;66874;45.274;5.880;2024-02-21T11:54:41;6.63;;;1.73;;
77705;SDS011;66874;45.274;5.880;2024-02-21T11:57:07;2.78;;;1.75;;
77705;SDS011;66874;45.274;5.880;2024-02-21T11:59:33;3.83;;;2.00;;
77705;SDS011;66874;45.274;5.880;2024-02-21T12:01:59;4.28;;;2.10;;
77705;SDS011;66874;45.274;5.880;2024-02-21T12:04:26;8.27;;;1.90;;
77705;SDS011;66874;45.274;5.880;2024-02-21T12:06:54;6.07;;;2.10;;
77705;SDS011;66874;45.274;5.880;2024-02-21T12:09:20;3.38;;;2.08;;
77705;SDS011;66874;45.274;5.880;2024-02-21T12:11:45;4.45;;;2.00;;
77705;SDS011;66874;45.274;5.880;2024-02-21T12:14:11;3.60;;;1.58;;
77705;SDS011;66874;45.274;5.880;2024-02-21T12:16:41;3.13;;;1.98;;
77705;SDS011;66874;45.274;5.880;2024-02-21T12:19:07;7.28;;;2.97;;
77705;SDS011;66874;45.274;5.880;2024-02-21T12:21:34;4.22;;;1.88;;
77705;SDS011;66874;45.274;5.880;2024-02-21T12:24:14;2.85;;;1.92;;
77705;SDS011;66874;45.274;5.880;2024-02-21T12:26:41;7.43;;;1.95;;
77705;SDS011;66874;45.274;5.880;2024-02-21T12:29:06;2.80;;;1.70;;
77705;SDS011;66874;45.274;5.880;2024-02-21T12:31:36;6.93;;;1.50;;
77705;SDS011;66874;45.274;5.880;2024-02-21T12:34:05;3.33;;;1.77;;
77705;SDS011;66874;45.274;5.880;2024-02-21T12:36:35;5.13;;;1.83;;
77705;SDS011;66874;45.274;5.880;2024-02-21T12:39:05;5.15;;;2.33;;
77705;SDS011;66874;45.274;5.880;2024-02-21T12:41:31;7.65;;;2.10;;
77705;SDS011;66874;45.274;5.880;2024-02-21T12:43:58;6.28;;;2.25;;
77705;SDS011;66874;45.274;5.880;2024-02-21T12:46:23;4.13;;;2.20;;
77705;SDS011;66874;45.274;5.880;2024-02-21T12:48:49;3.25;;;1.80;;
77705;SDS011;66874;45.274;5.880;2024-02-21T12:51:15;4.60;;;1.85;;
77705;SDS011;66874;45.274;5.880;2024-02-21T12:53:45;4.38;;;1.83;;
77705;SDS011;66874;45.274;5.880;2024-02-21T12:56:11;6.13;;;2.50;;
77705;SDS011;66874;45.274;5.880;2024-02-21T12:58:37;6.32;;;2.70;;
77705;SDS011;66874;45.274;5.880;2024-02-21T13:01:02;8.68;;;2.30;;
77705;SDS011;66874;45.274;5.880;2024-02-21T13:03:28;4.05;;;2.03;;
77705;SDS011;66874;45.274;5.880;2024-02-21T13:05:55;7.88;;;2.80;;
77705;SDS011;66874;45.274;5.880;2024-02-21T13:08:21;5.05;;;2.00;;
77705;SDS011;66874;45.274;5.880;2024-02-21T13:10:48;5.03;;;2.25;;
77705;SDS011;66874;45.274;5.880;2024-02-21T13:13:14;5.33;;;2.40;;
77705;SDS011;66874;45.274;5.880;2024-02-21T13:15:39;5.43;;;2.65;;
77705;SDS011;66874;45.274;5.880;2024-02-21T13:18:08;4.43;;;2.38;;
77705;SDS011;66874;45.274;5.880;2024-02-21T13:20:33;10.80;;;2.30;;
77705;SDS011;66874;45.274;5.880;2024-02-21T13:22:59;5.10;;;2.20;;
77705;SDS011;66874;45.274;5.880;2024-02-21T13:25:24;7.15;;;2.22;;
77705;SDS011;66874;45.274;5.880;2024-02-21T13:27:50;7.65;;;1.92;;
77705;SDS011;66874;45.274;5.880;2024-02-21T13:30:16;4.15;;;1.70;;
77705;SDS011;66874;45.274;5.880;2024-02-21T13:32:42;3.10;;;1.73;;
77705;SDS011;66874;45.274;5.880;2024-02-21T13:35:08;4.32;;;1.77;;
77705;SDS011;66874;45.274;5.880;2024-02-21T13:37:34;7.90;;;2.63;;
77705;SDS011;66874;45.274;5.880;2024-02-21T13:39:59;6.43;;;1.70;;
77705;SDS011;66874;45.274;5.880;2024-02-21T13:42:25;3.67;;;1.77;;
77705;SDS011;66874;45.274;5.880;2024-02-21T13:47:18;3.88;;;1.20;;
77705;SDS011;66874;45.274;5.880;2024-02-21T13:49:43;3.30;;;1.40;;
77705;SDS011;66874;45.274;5.880;2024-02-21T13:52:09;3.60;;;1.30;;
77705;SDS011;66874;45.274;5.880;2024-02-21T13:54:34;5.55;;;1.23;;
77705;SDS011;66874;45.274;5.880;2024-02-21T13:57:00;3.45;;;1.13;;
77705;SDS011;66874;45.274;5.880;2024-02-21T13:59:27;3.45;;;1.10;;
77705;SDS011;66874;45.274;5.880;2024-02-21T14:01:52;1.95;;;1.35;;
77705;SDS011;66874;45.274;5.880;2024-02-21T14:04:18;5.25;;;1.30;;
77705;SDS011;66874;45.274;5.880;2024-02-21T14:06:43;2.47;;;1.08;;
77705;SDS011;66874;45.274;5.880;2024-02-21T14:09:09;2.00;;;1.10;;
77705;SDS011;66874;45.274;5.880;2024-02-21T14:11:35;3.15;;;1.45;;
77705;SDS011;66874;45.274;5.880;2024-02-21T14:14:00;2.88;;;1.27;;
77705;SDS011;66874;45.274;5.880;2024-02-21T14:16:26;4.53;;;1.27;;
77705;SDS011;66874;45.274;5.880;2024-02-21T14:18:51;1.55;;;1.20;;
77705;SDS011;66874;45.274;5.880;2024-02-21T14:21:17;3.35;;;1.08;;
77705;SDS011;66874;45.274;5.880;2024-02-21T14:23:42;2.70;;;1.23;;
77705;SDS011;66874;45.274;5.880;2024-02-21T14:26:08;7.40;;;1.40;;
77705;SDS011;66874;45.274;5.880;2024-02-21T14:28:33;3.60;;;1.38;;
77705;SDS011;66874;45.274;5.880;2024-02-21T14:30:59;3.30;;;1.40;;
77705;SDS011;66874;45.274;5.880;2024-02-21T14:33:26;5.60;;;1.65;;
77705;SDS011;66874;45.274;5.880;2024-02-21T14:35:52;2.40;;;1.10;;
77705;SDS011;66874;45.274;5.880;2024-02-21T14:38:17;7.45;;;1.98;;
77705;SDS011;66874;45.274;5.880;2024-02-21T14:40:44;3.72;;;1.40;;
77705;SDS011;66874;45.274;5.880;2024-02-21T14:43:10;3.40;;;1.55;;
77705;SDS011;66874;45.274;5.880;2024-02-21T14:45:35;3.25;;;1.42;;
77705;SDS011;66874;45.274;5.880;2024-02-21T14:48:01;5.70;;;1.60;;
77705;SDS011;66874;45.274;5.880;2024-02-21T14:50:27;2.10;;;1.30;;
77705;SDS011;66874;45.274;5.880;2024-02-21T14:52:52;2.30;;;1.33;;
77705;SDS011;66874;45.274;5.880;2024-02-21T14:55:19;3.15;;;1.50;;